sensor_id;sensor_type;location;lat;lon;timestamp;pressure;altitude;pressure_sealevel;temperature;humidity
64139;BME280;50435;43.700;-79.318;2023-02-16T00:01:42;99396.85;;;10.89;43.91
64139;BME280;50435;43.700;-79.318;2023-02-16T00:04:14;99404.51;;;10.88;43.64
64139;BME280;50435;43.700;-79.318;2023-02-16T00:06:44;99408.56;;;10.75;43.82
64139;BME280;50435;43.700;-79.318;2023-02-16T00:09:11;99416.67;;;10.87;43.75
64139;BME280;50435;43.700;-79.318;2023-02-16T00:11:40;99411.73;;;10.58;43.90
64139;BME280;50435;43.700;-79.318;2023-02-16T00:14:10;99425.04;;;10.97;43.93
64139;BME280;50435;43.700;-79.318;2023-02-16T00:16:38;99446.26;;;10.87;43.91
64139;BME280;50435;43.700;-79.318;2023-02-16T00:19:16;99447.17;;;10.72;43.99
64139;BME280;50435;43.700;-79.318;2023-02-16T00:21:44;99453.92;;;10.22;43.90
64139;BME280;50435;43.700;-79.318;2023-02-16T00:24:11;99464.48;;;10.46;43.69
64139;BME280;50435;43.700;-79.318;2023-02-16T00:26:41;99471.42;;;10.33;43.81
64139;BME280;50435;43.700;-79.318;2023-02-16T00:29:14;99477.51;;;10.27;43.81
64139;BME280;50435;43.700;-79.318;2023-02-16T00:31:44;99482.27;;;10.16;43.75
64139;BME280;50435;43.700;-79.318;2023-02-16T00:34:24;99488.74;;;10.24;43.84
64139;BME280;50435;43.700;-79.318;2023-02-16T00:36:52;99499.87;;;10.21;43.77
64139;BME280;50435;43.700;-79.318;2023-02-16T00:39:20;99505.77;;;10.11;43.82
64139;BME280;50435;43.700;-79.318;2023-02-16T00:41:48;99511.75;;;10.04;43.73
64139;BME280;50435;43.700;-79.318;2023-02-16T00:44:18;99510.66;;;9.97;43.66
64139;BME280;50435;43.700;-79.318;2023-02-16T00:46:47;99512.18;;;9.99;43.60
64139;BME280;50435;43.700;-79.318;2023-02-16T00:49:15;99529.95;;;9.82;43.76
64139;BME280;50435;43.700;-79.318;2023-02-16T00:51:43;99528.93;;;9.74;43.75
64139;BME280;50435;43.700;-79.318;2023-02-16T00:54:11;99534.72;;;9.64;44.01
64139;BME280;50435;43.700;-79.318;2023-02-16T00:56:40;99547.77;;;9.66;43.91
64139;BME280;50435;43.700;-79.318;2023-02-16T00:59:13;99547.89;;;9.63;43.53
64139;BME280;50435;43.700;-79.318;2023-02-16T01:01:42;99559.88;;;9.93;43.45
64139;BME280;50435;43.700;-79.318;2023-02-16T01:04:15;99564.30;;;9.48;43.58
64139;BME280;50435;43.700;-79.318;2023-02-16T01:06:44;99559.66;;;9.40;43.86
64139;BME280;50435;43.700;-79.318;2023-02-16T01:09:14;99558.80;;;9.33;43.95
64139;BME280;50435;43.700;-79.318;2023-02-16T01:11:42;99572.85;;;9.25;44.12
64139;BME280;50435;43.700;-79.318;2023-02-16T01:14:11;99583.68;;;9.48;43.87
64139;BME280;50435;43.700;-79.318;2023-02-16T01:16:41;99594.84;;;9.23;43.69
64139;BME280;50435;43.700;-79.318;2023-02-16T01:19:10;99599.10;;;9.64;43.67
64139;BME280;50435;43.700;-79.318;2023-02-16T01:21:39;99605.32;;;9.45;43.57
64139;BME280;50435;43.700;-79.318;2023-02-16T01:24:07;99606.79;;;9.48;43.62
64139;BME280;50435;43.700;-79.318;2023-02-16T01:26:38;99607.05;;;9.19;43.84
64139;BME280;50435;43.700;-79.318;2023-02-16T01:29:14;99615.65;;;9.48;43.84
64139;BME280;50435;43.700;-79.318;2023-02-16T01:31:43;99613.63;;;8.79;43.87
64139;BME280;50435;43.700;-79.318;2023-02-16T01:34:12;99617.06;;;9.31;43.76
64139;BME280;50435;43.700;-79.318;2023-02-16T01:36:43;99622.32;;;9.34;43.55
64139;BME280;50435;43.700;-79.318;2023-02-16T01:39:14;99630.69;;;9.20;43.78
64139;BME280;50435;43.700;-79.318;2023-02-16T01:41:54;99626.38;;;9.22;43.75
64139;BME280;50435;43.700;-79.318;2023-02-16T01:44:26;99630.17;;;9.16;43.75
64139;BME280;50435;43.700;-79.318;2023-02-16T01:47:00;99632.41;;;8.99;43.57
64139;BME280;50435;43.700;-79.318;2023-02-16T01:49:30;99640.03;;;9.13;43.71
64139;BME280;50435;43.700;-79.318;2023-02-16T01:52:04;99636.48;;;9.23;43.60
64139;BME280;50435;43.700;-79.318;2023-02-16T01:54:39;99637.16;;;8.88;43.96
64139;BME280;50435;43.700;-79.318;2023-02-16T01:57:22;99650.13;;;8.92;43.72
64139;BME280;50435;43.700;-79.318;2023-02-16T02:00:29;99647.87;;;8.98;43.28
64139;BME280;50435;43.700;-79.318;2023-02-16T02:03:00;99656.52;;;8.78;43.41
64139;BME280;50435;43.700;-79.318;2023-02-16T02:05:31;99664.16;;;8.78;43.47
64139;BME280;50435;43.700;-79.318;2023-02-16T02:08:06;99668.85;;;8.88;43.74
64139;BME280;50435;43.700;-79.318;2023-02-16T02:10:44;99680.92;;;8.70;43.51
64139;BME280;50435;43.700;-79.318;2023-02-16T02:13:18;99684.01;;;8.68;43.49
64139;BME280;50435;43.700;-79.318;2023-02-16T02:15:50;99693.68;;;8.56;43.61
64139;BME280;50435;43.700;-79.318;2023-02-16T02:18:18;99692.66;;;8.73;43.64
64139;BME280;50435;43.700;-79.318;2023-02-16T02:20:56;99691.94;;;8.46;43.81
64139;BME280;50435;43.700;-79.318;2023-02-16T02:23:40;99705.54;;;8.52;43.64
64139;BME280;50435;43.700;-79.318;2023-02-16T02:26:41;99707.95;;;8.93;43.38
64139;BME280;50435;43.700;-79.318;2023-02-16T02:29:35;99718.94;;;8.63;43.51
64139;BME280;50435;43.700;-79.318;2023-02-16T02:32:15;99730.87;;;8.46;43.58
64139;BME280;50435;43.700;-79.318;2023-02-16T02:35:28;99737.26;;;8.62;43.82
64139;BME280;50435;43.700;-79.318;2023-02-16T02:38:13;99744.33;;;8.62;43.59
64139;BME280;50435;43.700;-79.318;2023-02-16T02:40:54;99752.32;;;8.49;43.53
64139;BME280;50435;43.700;-79.318;2023-02-16T02:43:30;99754.87;;;8.21;43.14
64139;BME280;50435;43.700;-79.318;2023-02-16T02:46:04;99765.39;;;8.32;43.35
64139;BME280;50435;43.700;-79.318;2023-02-16T02:48:34;99774.39;;;8.05;43.73
64139;BME280;50435;43.700;-79.318;2023-02-16T02:51:07;99780.99;;;8.14;43.31
64139;BME280;50435;43.700;-79.318;2023-02-16T02:53:38;99788.42;;;8.34;43.16
64139;BME280;50435;43.700;-79.318;2023-02-16T02:56:08;99798.84;;;8.33;43.17
64139;BME280;50435;43.700;-79.318;2023-02-16T02:58:38;99801.53;;;8.20;43.34
64139;BME280;50435;43.700;-79.318;2023-02-16T03:01:08;99804.43;;;8.13;43.35
64139;BME280;50435;43.700;-79.318;2023-02-16T03:03:40;99811.64;;;8.10;43.46
64139;BME280;50435;43.700;-79.318;2023-02-16T03:06:12;99805.36;;;8.01;43.56
64139;BME280;50435;43.700;-79.318;2023-02-16T03:08:45;99827.29;;;8.08;43.47
64139;BME280;50435;43.700;-79.318;2023-02-16T03:11:18;99844.93;;;8.14;43.65
64139;BME280;50435;43.700;-79.318;2023-02-16T03:13:50;99837.37;;;8.29;43.49
64139;BME280;50435;43.700;-79.318;2023-02-16T03:16:24;99846.16;;;8.06;43.21
64139;BME280;50435;43.700;-79.318;2023-02-16T03:18:54;99848.38;;;7.73;43.69
64139;BME280;50435;43.700;-79.318;2023-02-16T03:21:24;99845.12;;;7.99;43.33
64139;BME280;50435;43.700;-79.318;2023-02-16T03:23:54;99836.62;;;8.06;43.24
64139;BME280;50435;43.700;-79.318;2023-02-16T03:26:23;99836.40;;;8.19;43.52
64139;BME280;50435;43.700;-79.318;2023-02-16T03:28:52;99840.69;;;8.24;43.36
64139;BME280;50435;43.700;-79.318;2023-02-16T03:31:22;99840.79;;;8.17;43.56
64139;BME280;50435;43.700;-79.318;2023-02-16T03:33:51;99843.04;;;7.73;43.63
64139;BME280;50435;43.700;-79.318;2023-02-16T03:36:19;99867.91;;;7.96;43.70
64139;BME280;50435;43.700;-79.318;2023-02-16T03:38:47;99874.20;;;7.93;43.44
64139;BME280;50435;43.700;-79.318;2023-02-16T03:41:14;99866.64;;;8.24;43.14
64139;BME280;50435;43.700;-79.318;2023-02-16T03:43:42;99878.93;;;7.86;43.51
64139;BME280;50435;43.700;-79.318;2023-02-16T03:46:09;99889.40;;;8.14;43.46
64139;BME280;50435;43.700;-79.318;2023-02-16T03:48:36;99894.62;;;8.20;43.59
64139;BME280;50435;43.700;-79.318;2023-02-16T03:51:04;99888.35;;;8.16;43.30
64139;BME280;50435;43.700;-79.318;2023-02-16T03:53:32;99900.62;;;8.09;43.30
64139;BME280;50435;43.700;-79.318;2023-02-16T03:55:59;99896.17;;;7.86;43.12
64139;BME280;50435;43.700;-79.318;2023-02-16T03:58:26;99894.56;;;7.65;42.98
64139;BME280;50435;43.700;-79.318;2023-02-16T04:00:54;99898.17;;;8.08;43.01
64139;BME280;50435;43.700;-79.318;2023-02-16T04:03:21;99891.37;;;7.48;43.24
64139;BME280;50435;43.700;-79.318;2023-02-16T04:05:49;99896.33;;;7.71;43.15
64139;BME280;50435;43.700;-79.318;2023-02-16T04:08:16;99888.11;;;7.95;42.92
64139;BME280;50435;43.700;-79.318;2023-02-16T04:10:44;99881.00;;;7.95;43.04
64139;BME280;50435;43.700;-79.318;2023-02-16T04:13:11;99880.31;;;7.68;43.04
64139;BME280;50435;43.700;-79.318;2023-02-16T04:15:39;99883.34;;;7.89;43.04
64139;BME280;50435;43.700;-79.318;2023-02-16T04:18:07;99889.51;;;7.90;43.15
64139;BME280;50435;43.700;-79.318;2023-02-16T04:20:35;99907.27;;;7.56;43.05
64139;BME280;50435;43.700;-79.318;2023-02-16T04:23:02;99914.45;;;7.86;43.07
64139;BME280;50435;43.700;-79.318;2023-02-16T04:25:30;99922.00;;;7.38;43.29
64139;BME280;50435;43.700;-79.318;2023-02-16T04:27:58;99937.42;;;7.64;43.13
64139;BME280;50435;43.700;-79.318;2023-02-16T04:30:28;99956.31;;;7.68;42.93
64139;BME280;50435;43.700;-79.318;2023-02-16T04:32:57;99968.05;;;7.62;43.01
64139;BME280;50435;43.700;-79.318;2023-02-16T04:35:25;99979.39;;;7.30;43.34
64139;BME280;50435;43.700;-79.318;2023-02-16T04:37:53;99983.96;;;7.51;43.36
64139;BME280;50435;43.700;-79.318;2023-02-16T04:40:20;99995.67;;;7.18;43.32
64139;BME280;50435;43.700;-79.318;2023-02-16T04:42:47;100002.87;;;7.50;43.33
64139;BME280;50435;43.700;-79.318;2023-02-16T04:45:15;100001.31;;;7.51;43.29
64139;BME280;50435;43.700;-79.318;2023-02-16T04:47:43;99995.99;;;7.46;43.15
64139;BME280;50435;43.700;-79.318;2023-02-16T04:50:11;100000.29;;;7.37;43.53
64139;BME280;50435;43.700;-79.318;2023-02-16T04:52:39;100002.08;;;7.37;43.53
64139;BME280;50435;43.700;-79.318;2023-02-16T04:55:07;99987.90;;;7.35;43.45
64139;BME280;50435;43.700;-79.318;2023-02-16T04:57:34;99983.89;;;7.50;43.24
64139;BME280;50435;43.700;-79.318;2023-02-16T05:00:03;99980.58;;;7.38;43.05
64139;BME280;50435;43.700;-79.318;2023-02-16T05:02:31;99969.57;;;7.55;43.15
64139;BME280;50435;43.700;-79.318;2023-02-16T05:04:59;99964.53;;;7.36;43.08
64139;BME280;50435;43.700;-79.318;2023-02-16T05:07:26;99966.57;;;7.79;43.29
64139;BME280;50435;43.700;-79.318;2023-02-16T05:09:53;99969.65;;;7.29;42.93
64139;BME280;50435;43.700;-79.318;2023-02-16T05:12:20;99970.99;;;7.25;42.84
64139;BME280;50435;43.700;-79.318;2023-02-16T05:14:48;99978.09;;;7.73;43.03
64139;BME280;50435;43.700;-79.318;2023-02-16T05:17:18;99991.82;;;7.41;43.01
64139;BME280;50435;43.700;-79.318;2023-02-16T05:19:48;99999.14;;;7.06;43.01
64139;BME280;50435;43.700;-79.318;2023-02-16T05:22:15;100016.03;;;7.23;43.32
64139;BME280;50435;43.700;-79.318;2023-02-16T05:24:43;100021.87;;;6.96;43.40
64139;BME280;50435;43.700;-79.318;2023-02-16T05:27:12;100038.06;;;7.09;43.60
64139;BME280;50435;43.700;-79.318;2023-02-16T05:29:40;100045.63;;;7.35;43.46
64139;BME280;50435;43.700;-79.318;2023-02-16T05:32:07;100051.99;;;7.31;43.72
64139;BME280;50435;43.700;-79.318;2023-02-16T05:34:35;100060.23;;;7.30;43.55
64139;BME280;50435;43.700;-79.318;2023-02-16T05:37:02;100073.92;;;7.21;43.83
64139;BME280;50435;43.700;-79.318;2023-02-16T05:39:29;100068.68;;;7.23;43.78
64139;BME280;50435;43.700;-79.318;2023-02-16T05:41:57;100070.56;;;7.00;43.64
64139;BME280;50435;43.700;-79.318;2023-02-16T05:44:25;100067.56;;;6.77;43.69
64139;BME280;50435;43.700;-79.318;2023-02-16T05:46:53;100082.37;;;7.28;43.55
64139;BME280;50435;43.700;-79.318;2023-02-16T05:49:21;100082.60;;;6.87;43.72
64139;BME280;50435;43.700;-79.318;2023-02-16T05:51:49;100084.60;;;7.15;44.09
64139;BME280;50435;43.700;-79.318;2023-02-16T05:54:17;100082.16;;;7.07;43.61
64139;BME280;50435;43.700;-79.318;2023-02-16T05:56:45;100072.21;;;7.14;43.56
64139;BME280;50435;43.700;-79.318;2023-02-16T05:59:13;100057.14;;;6.87;43.54
64139;BME280;50435;43.700;-79.318;2023-02-16T06:01:40;100049.95;;;7.11;43.31
64139;BME280;50435;43.700;-79.318;2023-02-16T06:04:09;100044.12;;;7.21;43.13
64139;BME280;50435;43.700;-79.318;2023-02-16T06:06:37;100039.80;;;6.54;43.34
64139;BME280;50435;43.700;-79.318;2023-02-16T06:09:06;100032.12;;;6.57;43.47
64139;BME280;50435;43.700;-79.318;2023-02-16T06:11:34;100028.57;;;7.18;43.11
64139;BME280;50435;43.700;-79.318;2023-02-16T06:14:02;100041.75;;;6.98;43.23
64139;BME280;50435;43.700;-79.318;2023-02-16T06:16:31;100043.82;;;6.64;43.71
64139;BME280;50435;43.700;-79.318;2023-02-16T06:18:59;100047.87;;;6.74;43.02
64139;BME280;50435;43.700;-79.318;2023-02-16T06:21:27;100056.12;;;7.07;43.07
64139;BME280;50435;43.700;-79.318;2023-02-16T06:23:55;100064.57;;;6.94;43.07
64139;BME280;50435;43.700;-79.318;2023-02-16T06:26:23;100086.60;;;6.43;43.30
64139;BME280;50435;43.700;-79.318;2023-02-16T06:28:51;100090.09;;;6.83;43.50
64139;BME280;50435;43.700;-79.318;2023-02-16T06:31:19;100093.00;;;6.54;43.33
64139;BME280;50435;43.700;-79.318;2023-02-16T06:33:47;100105.81;;;6.60;43.45
64139;BME280;50435;43.700;-79.318;2023-02-16T06:36:15;100116.06;;;6.85;43.18
64139;BME280;50435;43.700;-79.318;2023-02-16T06:38:43;100125.72;;;6.89;43.37
64139;BME280;50435;43.700;-79.318;2023-02-16T06:41:10;100131.39;;;6.82;43.44
64139;BME280;50435;43.700;-79.318;2023-02-16T06:43:38;100127.29;;;6.69;43.69
64139;BME280;50435;43.700;-79.318;2023-02-16T06:46:05;100126.98;;;6.72;43.73
64139;BME280;50435;43.700;-79.318;2023-02-16T06:48:32;100130.85;;;6.30;43.56
64139;BME280;50435;43.700;-79.318;2023-02-16T06:51:00;100129.22;;;6.78;43.29
64139;BME280;50435;43.700;-79.318;2023-02-16T06:53:27;100137.72;;;6.71;43.50
64139;BME280;50435;43.700;-79.318;2023-02-16T06:55:54;100136.15;;;6.78;43.60
64139;BME280;50435;43.700;-79.318;2023-02-16T06:58:21;100142.90;;;6.67;43.55
64139;BME280;50435;43.700;-79.318;2023-02-16T07:00:48;100147.85;;;6.66;43.76
64139;BME280;50435;43.700;-79.318;2023-02-16T07:03:15;100153.56;;;6.77;43.48
64139;BME280;50435;43.700;-79.318;2023-02-16T07:05:42;100171.09;;;6.76;43.51
64139;BME280;50435;43.700;-79.318;2023-02-16T07:08:10;100172.11;;;6.72;43.38
64139;BME280;50435;43.700;-79.318;2023-02-16T07:10:37;100166.75;;;6.67;43.36
64139;BME280;50435;43.700;-79.318;2023-02-16T07:13:08;100163.07;;;6.39;43.39
64139;BME280;50435;43.700;-79.318;2023-02-16T07:15:35;100167.74;;;6.39;43.39
64139;BME280;50435;43.700;-79.318;2023-02-16T07:18:03;100160.14;;;6.67;43.52
64139;BME280;50435;43.700;-79.318;2023-02-16T07:20:31;100158.36;;;6.38;43.61
64139;BME280;50435;43.700;-79.318;2023-02-16T07:22:59;100157.33;;;6.40;43.43
64139;BME280;50435;43.700;-79.318;2023-02-16T07:25:26;100165.67;;;6.67;43.45
64139;BME280;50435;43.700;-79.318;2023-02-16T07:27:53;100162.52;;;6.64;43.45
64139;BME280;50435;43.700;-79.318;2023-02-16T07:30:20;100162.09;;;6.35;43.43
64139;BME280;50435;43.700;-79.318;2023-02-16T07:32:48;100169.20;;;6.66;43.33
64139;BME280;50435;43.700;-79.318;2023-02-16T07:35:15;100185.64;;;6.37;43.36
64139;BME280;50435;43.700;-79.318;2023-02-16T07:37:42;100197.36;;;6.52;43.75
64139;BME280;50435;43.700;-79.318;2023-02-16T07:40:11;100205.11;;;6.64;43.41
64139;BME280;50435;43.700;-79.318;2023-02-16T07:42:38;100208.61;;;6.57;43.95
64139;BME280;50435;43.700;-79.318;2023-02-16T07:45:06;100200.32;;;6.63;43.88
64139;BME280;50435;43.700;-79.318;2023-02-16T07:47:33;100199.30;;;6.54;43.47
64139;BME280;50435;43.700;-79.318;2023-02-16T07:50:01;100205.11;;;6.51;43.52
64139;BME280;50435;43.700;-79.318;2023-02-16T07:52:28;100209.90;;;6.55;43.74
64139;BME280;50435;43.700;-79.318;2023-02-16T07:54:55;100209.53;;;6.55;44.12
64139;BME280;50435;43.700;-79.318;2023-02-16T07:57:23;100207.48;;;6.41;43.77
64139;BME280;50435;43.700;-79.318;2023-02-16T07:59:51;100213.14;;;6.49;43.47
64139;BME280;50435;43.700;-79.318;2023-02-16T08:02:19;100208.18;;;6.48;43.52
64139;BME280;50435;43.700;-79.318;2023-02-16T08:04:48;100218.62;;;6.43;43.70
64139;BME280;50435;43.700;-79.318;2023-02-16T08:07:16;100220.69;;;6.42;43.61
64139;BME280;50435;43.700;-79.318;2023-02-16T08:09:43;100222.96;;;6.39;43.59
64139;BME280;50435;43.700;-79.318;2023-02-16T08:12:13;100220.45;;;6.20;43.59
64139;BME280;50435;43.700;-79.318;2023-02-16T08:14:41;100222.39;;;6.42;43.67
64139;BME280;50435;43.700;-79.318;2023-02-16T08:17:09;100222.45;;;6.17;43.66
64139;BME280;50435;43.700;-79.318;2023-02-16T08:19:37;100229.66;;;6.65;43.56
64139;BME280;50435;43.700;-79.318;2023-02-16T08:22:04;100236.59;;;6.43;43.47
64139;BME280;50435;43.700;-79.318;2023-02-16T08:24:33;100237.32;;;6.35;43.75
64139;BME280;50435;43.700;-79.318;2023-02-16T08:27:02;100236.38;;;6.37;43.58
64139;BME280;50435;43.700;-79.318;2023-02-16T08:29:31;100251.19;;;6.31;43.67
64139;BME280;50435;43.700;-79.318;2023-02-16T08:31:59;100261.55;;;6.41;43.46
64139;BME280;50435;43.700;-79.318;2023-02-16T08:34:28;100261.75;;;6.29;43.76
64139;BME280;50435;43.700;-79.318;2023-02-16T08:36:56;100263.94;;;6.21;43.81
64139;BME280;50435;43.700;-79.318;2023-02-16T08:39:25;100257.75;;;6.00;43.74
64139;BME280;50435;43.700;-79.318;2023-02-16T08:41:54;100236.06;;;6.25;43.71
64139;BME280;50435;43.700;-79.318;2023-02-16T08:44:23;100227.21;;;6.20;43.94
64139;BME280;50435;43.700;-79.318;2023-02-16T08:46:51;100231.67;;;6.32;43.74
64139;BME280;50435;43.700;-79.318;2023-02-16T08:49:20;100238.94;;;5.95;43.80
64139;BME280;50435;43.700;-79.318;2023-02-16T08:51:50;100240.33;;;6.13;43.88
64139;BME280;50435;43.700;-79.318;2023-02-16T08:54:20;100248.46;;;6.12;43.99
64139;BME280;50435;43.700;-79.318;2023-02-16T08:56:48;100247.07;;;6.19;43.86
64139;BME280;50435;43.700;-79.318;2023-02-16T08:59:18;100251.74;;;6.37;44.12
64139;BME280;50435;43.700;-79.318;2023-02-16T09:01:47;100245.61;;;6.15;44.09
64139;BME280;50435;43.700;-79.318;2023-02-16T09:04:18;100251.59;;;6.38;43.96
64139;BME280;50435;43.700;-79.318;2023-02-16T09:06:46;100251.43;;;6.35;44.24
64139;BME280;50435;43.700;-79.318;2023-02-16T09:09:15;100253.52;;;6.06;43.78
64139;BME280;50435;43.700;-79.318;2023-02-16T09:11:42;100246.96;;;6.17;43.61
64139;BME280;50435;43.700;-79.318;2023-02-16T09:14:10;100248.09;;;6.03;43.84
64139;BME280;50435;43.700;-79.318;2023-02-16T09:16:38;100240.08;;;6.24;43.82
64139;BME280;50435;43.700;-79.318;2023-02-16T09:19:06;100241.29;;;6.07;43.96
64139;BME280;50435;43.700;-79.318;2023-02-16T09:21:33;100238.53;;;6.03;43.63
64139;BME280;50435;43.700;-79.318;2023-02-16T09:24:01;100237.37;;;6.15;43.70
64139;BME280;50435;43.700;-79.318;2023-02-16T09:26:31;100235.32;;;5.94;43.83
64139;BME280;50435;43.700;-79.318;2023-02-16T09:29:00;100237.42;;;5.97;43.81
64139;BME280;50435;43.700;-79.318;2023-02-16T09:31:29;100238.21;;;6.16;43.63
64139;BME280;50435;43.700;-79.318;2023-02-16T09:34:00;100239.74;;;6.12;43.62
64139;BME280;50435;43.700;-79.318;2023-02-16T09:36:28;100248.64;;;6.10;43.68
64139;BME280;50435;43.700;-79.318;2023-02-16T09:38:56;100251.09;;;5.84;43.86
64139;BME280;50435;43.700;-79.318;2023-02-16T09:41:31;100258.75;;;5.82;43.85
64139;BME280;50435;43.700;-79.318;2023-02-16T09:44:09;100260.44;;;6.26;43.72
64139;BME280;50435;43.700;-79.318;2023-02-16T09:46:42;100261.21;;;5.82;43.78
64139;BME280;50435;43.700;-79.318;2023-02-16T09:49:17;100263.29;;;5.81;44.65
64139;BME280;50435;43.700;-79.318;2023-02-16T09:51:46;100263.44;;;5.98;43.90
64139;BME280;50435;43.700;-79.318;2023-02-16T09:54:32;100278.68;;;5.99;44.42
64139;BME280;50435;43.700;-79.318;2023-02-16T09:57:04;100271.05;;;6.11;44.17
64139;BME280;50435;43.700;-79.318;2023-02-16T09:59:41;100278.19;;;6.06;43.86
64139;BME280;50435;43.700;-79.318;2023-02-16T10:02:26;100283.48;;;6.15;43.95
64139;BME280;50435;43.700;-79.318;2023-02-16T10:05:13;100296.02;;;6.07;43.94
64139;BME280;50435;43.700;-79.318;2023-02-16T10:07:49;100294.24;;;5.53;44.39
64139;BME280;50435;43.700;-79.318;2023-02-16T10:10:23;100292.83;;;6.05;44.16
64139;BME280;50435;43.700;-79.318;2023-02-16T10:12:55;100297.88;;;5.90;44.41
64139;BME280;50435;43.700;-79.318;2023-02-16T10:15:27;100317.08;;;6.00;44.25
64139;BME280;50435;43.700;-79.318;2023-02-16T10:17:58;100314.82;;;6.04;44.06
64139;BME280;50435;43.700;-79.318;2023-02-16T10:20:32;100314.53;;;5.47;44.59
64139;BME280;50435;43.700;-79.318;2023-02-16T10:23:09;100324.32;;;5.54;44.28
64139;BME280;50435;43.700;-79.318;2023-02-16T10:25:44;100321.42;;;5.49;44.22
64139;BME280;50435;43.700;-79.318;2023-02-16T10:28:17;100321.62;;;5.70;44.32
64139;BME280;50435;43.700;-79.318;2023-02-16T10:30:49;100330.16;;;5.49;44.60
64139;BME280;50435;43.700;-79.318;2023-02-16T10:33:31;100339.27;;;5.48;44.23
64139;BME280;50435;43.700;-79.318;2023-02-16T10:36:12;100346.15;;;5.79;44.44
64139;BME280;50435;43.700;-79.318;2023-02-16T10:38:44;100339.44;;;5.60;44.52
64139;BME280;50435;43.700;-79.318;2023-02-16T10:41:26;100340.71;;;5.81;44.27
64139;BME280;50435;43.700;-79.318;2023-02-16T10:44:02;100339.23;;;5.60;44.27
64139;BME280;50435;43.700;-79.318;2023-02-16T10:46:38;100325.46;;;5.65;45.09
64139;BME280;50435;43.700;-79.318;2023-02-16T10:49:11;100309.75;;;5.77;44.57
64139;BME280;50435;43.700;-79.318;2023-02-16T10:51:41;100298.17;;;5.53;44.31
64139;BME280;50435;43.700;-79.318;2023-02-16T10:54:15;100281.03;;;5.69;44.60
64139;BME280;50435;43.700;-79.318;2023-02-16T10:56:48;100276.04;;;5.41;44.44
64139;BME280;50435;43.700;-79.318;2023-02-16T10:59:18;100290.08;;;5.79;45.13
64139;BME280;50435;43.700;-79.318;2023-02-16T11:01:49;100308.90;;;5.44;44.83
64139;BME280;50435;43.700;-79.318;2023-02-16T11:04:32;100316.83;;;5.58;44.34
64139;BME280;50435;43.700;-79.318;2023-02-16T11:07:03;100313.81;;;5.65;44.97
64139;BME280;50435;43.700;-79.318;2023-02-16T11:09:32;100316.81;;;5.57;45.32
64139;BME280;50435;43.700;-79.318;2023-02-16T11:12:00;100316.53;;;5.47;44.63
64139;BME280;50435;43.700;-79.318;2023-02-16T11:14:29;100318.60;;;5.47;44.55
64139;BME280;50435;43.700;-79.318;2023-02-16T11:17:03;100318.75;;;5.55;44.58
64139;BME280;50435;43.700;-79.318;2023-02-16T11:19:34;100310.38;;;5.48;44.14
64139;BME280;50435;43.700;-79.318;2023-02-16T11:22:01;100316.22;;;5.41;44.77
64139;BME280;50435;43.700;-79.318;2023-02-16T11:24:31;100315.93;;;5.36;44.45
64139;BME280;50435;43.700;-79.318;2023-02-16T11:27:02;100323.26;;;5.45;44.86
64139;BME280;50435;43.700;-79.318;2023-02-16T11:29:30;100341.17;;;5.31;44.59
64139;BME280;50435;43.700;-79.318;2023-02-16T11:31:58;100348.96;;;5.31;44.54
64139;BME280;50435;43.700;-79.318;2023-02-16T11:34:33;100359.56;;;5.23;44.62
64139;BME280;50435;43.700;-79.318;2023-02-16T11:37:05;100373.44;;;5.27;44.70
64139;BME280;50435;43.700;-79.318;2023-02-16T11:39:37;100365.77;;;5.32;45.07
64139;BME280;50435;43.700;-79.318;2023-02-16T11:42:08;100353.49;;;5.14;44.76
64139;BME280;50435;43.700;-79.318;2023-02-16T11:44:50;100339.51;;;5.20;44.57
64139;BME280;50435;43.700;-79.318;2023-02-16T11:47:23;100344.36;;;5.17;44.67
64139;BME280;50435;43.700;-79.318;2023-02-16T11:50:16;100347.67;;;5.09;44.83
64139;BME280;50435;43.700;-79.318;2023-02-16T11:52:45;100369.89;;;5.01;45.07
64139;BME280;50435;43.700;-79.318;2023-02-16T11:55:20;100393.19;;;5.03;44.91
64139;BME280;50435;43.700;-79.318;2023-02-16T11:57:48;100399.03;;;5.06;44.70
64139;BME280;50435;43.700;-79.318;2023-02-16T12:00:18;100392.83;;;4.90;45.04
64139;BME280;50435;43.700;-79.318;2023-02-16T12:03:00;100398.42;;;4.98;44.78
64139;BME280;50435;43.700;-79.318;2023-02-16T12:05:41;100419.79;;;4.89;44.84
64139;BME280;50435;43.700;-79.318;2023-02-16T12:08:28;100420.10;;;4.81;45.13
64139;BME280;50435;43.700;-79.318;2023-02-16T12:11:08;100413.19;;;4.78;45.29
64139;BME280;50435;43.700;-79.318;2023-02-16T12:13:44;100419.22;;;4.84;45.45
64139;BME280;50435;43.700;-79.318;2023-02-16T12:16:23;100433.34;;;5.01;45.47
64139;BME280;50435;43.700;-79.318;2023-02-16T12:19:03;100422.26;;;4.73;45.43
64139;BME280;50435;43.700;-79.318;2023-02-16T12:21:36;100413.35;;;4.98;45.50
64139;BME280;50435;43.700;-79.318;2023-02-16T12:24:11;100422.60;;;5.21;45.07
64139;BME280;50435;43.700;-79.318;2023-02-16T12:26:47;100427.90;;;4.66;45.62
64139;BME280;50435;43.700;-79.318;2023-02-16T12:29:28;100427.48;;;4.61;45.38
64139;BME280;50435;43.700;-79.318;2023-02-16T12:32:09;100429.89;;;5.16;45.42
64139;BME280;50435;43.700;-79.318;2023-02-16T12:34:51;100434.79;;;4.93;45.36
64139;BME280;50435;43.700;-79.318;2023-02-16T12:37:27;100424.73;;;4.52;45.39
64139;BME280;50435;43.700;-79.318;2023-02-16T12:40:05;100413.56;;;4.56;45.26
64139;BME280;50435;43.700;-79.318;2023-02-16T12:42:46;100407.91;;;4.84;45.35
64139;BME280;50435;43.700;-79.318;2023-02-16T12:45:19;100419.72;;;4.95;45.29
64139;BME280;50435;43.700;-79.318;2023-02-16T12:47:51;100435.81;;;4.69;45.43
64139;BME280;50435;43.700;-79.318;2023-02-16T12:50:23;100440.72;;;4.56;45.29
64139;BME280;50435;43.700;-79.318;2023-02-16T12:52:53;100433.43;;;4.73;45.11
64139;BME280;50435;43.700;-79.318;2023-02-16T12:55:27;100417.51;;;4.43;45.20
64139;BME280;50435;43.700;-79.318;2023-02-16T12:58:01;100409.99;;;4.67;45.25
64139;BME280;50435;43.700;-79.318;2023-02-16T13:00:41;100412.36;;;4.64;45.42
64139;BME280;50435;43.700;-79.318;2023-02-16T13:03:22;100405.58;;;4.44;45.56